Wednesday, April 16, 2014, 11:48 PM EDT
Back to Local

KHWV, Shirley Brookhaven Airport

Location: Shirley, NY, United States Lat: 40.817
Local Time: 11:48 PM EDT ( 3:48 GMT) Lon: -72.867
Time Zone: US/Eastern Elev: 82 ft

Show me the last for .
Show Coded

Time T Td Feel RH Dir Speed Gust Alt SLP Vis Weather Sky Remarks
2014-04-16 22:56 36 24 31 61 350° 6 - 30.55 30.55 10 CLR None
2014-04-16 21:56 35 22 31 58 350° 5 - 30.54 30.54 10 CLR None
2014-04-16 20:56 37 21 34 51 340° 3 - 30.52 30.52 10 CLR None
2014-04-16 19:56 40 19 36 42 340° 6 - 30.48 30.48 10 CLR 6-hr Min Temp (8pm): 39.9°F
6-hr Max Temp (8pm): 45.0°F
2014-04-16 18:56 43 17 36 34 350° 14 - 30.45 30.45 10 CLR None
2014-04-16 17:56 44 15 35 30 360° 15 24 30.43 30.43 10 CLR None
2014-04-16 16:56 45 15 36 29 340° 17 25 30.41 30.41 10 CLR Peak wind: 29 mph (26 kts) from 360° at 07 min
2014-04-16 15:56 45 14 36 28 340° 18 28 30.41 30.41 10 CLR None
2014-04-16 14:56 44 15 34 30 330° 17 31 30.40 30.40 10 CLR Peak wind: 31 mph (27 kts) from 350° at 47 min
2014-04-16 13:56 43 17 33 34 330° 22 29 30.39 30.39 10 CLR Peak wind: 29 mph (26 kts) from 330° at 30 min
6-hr Min Temp (2pm): 32.0°F
6-hr Max Temp (2pm): 43.0°F
2014-04-16 12:56 41 19 31 40 350° 17 25 30.37 30.37 10 CLR None
2014-04-16 11:56 39 19 27 44 340° 12 30 30.35 30.34 10 CLR Peak wind: 31 mph (27 kts) from 310° at 04 min
2014-04-16 10:56 37 19 24 47 340° 20 33 30.32 30.32 10 CLR Peak wind: 33 mph (29 kts) from 360° at 49 min
2014-04-16 09:56 35 18 22 49 340° 23 31 30.28 30.28 10 CLR Peak wind: 37 mph (33 kts) from 330° at 45 min
2014-04-16 08:56 33 18 18 53 350° 17 37 30.25 30.25 10 CLR Peak wind: 36 mph (32 kts) from 320° at 49 min
2014-04-16 07:56 32 19 18 58 330° 18 30 30.22 30.22 10 CLR Peak wind: 32 mph (28 kts) from 340° at 22 min
6-hr Precip Total (8am): 0.03"
24-hr Precip Total (8am): 1.09"
6-hr Min Temp (8am): 30.9°F
6-hr Max Temp (8am): 34.0°F
2014-04-16 06:56 31 19 16 60 330° 15 32 30.18 30.18 10 CLR Peak wind: 36 mph (32 kts) from 360° at 15 min
2014-04-16 05:56 31 20 16 63 340° 17 29 30.11 30.11 10 CLR Peak wind: 31 mph (27 kts) from 310° at 19 min
2014-04-16 04:56 32 24 19 72 330° 15 24 30.02 30.02 10 CLR 6-hr Precip Total (5am): 0.03"
2014-04-16 03:56 33 29 19 84 330° 18 30 29.99 29.98 10 FEW024 SCT031 BKN110 Peak wind: 29 mph (26 kts) from 310° at 55 min
1-hr Precip Total: 0.01"
2014-04-16 03:47 33 29 20 84 320° 16 25 29.95 - 10 FEW025 SCT060 OVC110 1-hr Precip Total: 0.01"
2014-04-16 03:31 33 30 24 88 320° 13 - 29.96 - 9 SCT009 BKN015 OVC120 Pressure rising rapidly
1-hr Precip Total: 0.01"
2014-04-16 03:24 32 30 19 92 360° 13 25 29.91 - 4 -SN BR SCT010 BKN015 OVC028 1-hr Precip Total: 0.01"
2014-04-16 03:19 32 30 19 92 340° 15 25 29.93 - 2 -SN BR BKN010 OVC015 1-hr Precip Total: 0.01"
2014-04-16 03:03 33 30 21 88 320° 15 23 29.97 - 5 -RA BR SCT010 BKN014 OVC060 Pressure rising rapidly
1-hr Precip Total: 0.01"
2014-04-16 02:56 33 31 25 91 330° 10 - 29.92 29.92 5 RA BR SCT012 OVC060 1-hr Precip Total: 0.02"
2014-04-16 02:43 33 30 22 88 330° 13 20 29.94 - 6 RA BR FEW013 BKN047 OVC070 1-hr Precip Total: 0.02"
2014-04-16 02:36 33 30 22 88 330° 12 20 29.95 - 4 RA BR SCT012 BKN017 OVC070 1-hr Precip Total: 0.02"
2014-04-16 01:56 34 31 21 88 320° 16 28 29.90 29.90 10 -RA FEW011 SCT017 OVC070 Peak wind: 31 mph (27 kts) from 330° at 45 min
1-hr Precip Total: 0.02"
6-hr Precip Total (2am): 0.27"
6-hr Min Temp (2am): 34.0°F
6-hr Max Temp (2am): 55.0°F
2014-04-16 01:53 34 30 20 86 320° 18 31 29.90 - 10 -RA SCT014 OVC070 Peak wind: 31 mph (27 kts) from 330° at 45 min
1-hr Precip Total: 0.02"
2014-04-16 00:56 35 33 22 92 340° 16 29 29.87 29.86 9 -RA FEW015 BKN070 OVC080 Peak wind: 32 mph (28 kts) from 340° at 02 min
1-hr Precip Total: 0.05"
24-hr Min Temp (1am): 35.1°F
24-hr Max Temp (1am): 60.1°F
2014-04-16 00:23 37 34 25 88 340° 18 28 29.86 - 9 -RA SCT014 BKN055 OVC070 Peak wind: 32 mph (28 kts) from 340° at 02 min
1-hr Precip Total: 0.01"
2014-04-15 23:56 38 35 27 89 330° 20 25 29.86 29.85 7 -RA FEW011 SCT024 OVC060 Peak wind: 34 mph (30 kts) from 330° at 59 min
1-hr Precip Total: 0.07"

Support USWX by starting your Amazon purchase here.